createdAt,value
2022-12-11T00:01:31.861Z,98691.75
2022-12-11T00:04:15.962Z,98687.97
2022-12-11T00:06:59.973Z,98684.25
2022-12-11T00:09:45.470Z,98699.53
2022-12-11T00:12:31.562Z,98717.56
2022-12-11T00:15:15.506Z,98710.69
2022-12-11T00:17:59.601Z,98633.41
2022-12-11T00:20:44.195Z,98658.94
2022-12-11T00:23:28.058Z,98658.06
2022-12-11T00:26:16.559Z,98659.16
2022-12-11T00:29:00.490Z,98694.38
2022-12-11T00:31:44.807Z,98687.19
2022-12-11T00:34:28.924Z,98611.22
2022-12-11T00:37:12.997Z,98648.00
2022-12-11T00:39:57.117Z,98643.13
2022-12-11T00:42:42.487Z,98644.63
2022-12-11T00:45:26.361Z,98623.28
2022-12-11T00:48:13.401Z,98645.66
2022-12-11T00:50:57.897Z,98607.41
2022-12-11T00:53:41.897Z,98596.72
2022-12-11T00:56:26.000Z,98594.00
2022-12-11T00:59:11.350Z,98626.63
2022-12-11T01:01:55.403Z,98594.22
2022-12-11T01:04:39.361Z,98610.28
2022-12-11T01:07:23.452Z,98604.03
2022-12-11T01:10:25.663Z,98595.09
2022-12-11T01:13:12.898Z,98608.56
2022-12-11T01:15:58.404Z,98576.63
2022-12-11T01:18:42.978Z,98568.63
2022-12-11T01:21:26.991Z,98596.41
2022-12-11T01:24:10.922Z,98571.84
2022-12-11T01:26:54.857Z,98577.28
2022-12-11T01:29:38.828Z,98598.22
2022-12-11T01:32:24.393Z,98571.44
2022-12-11T01:35:10.271Z,98578.56
2022-12-11T01:37:54.256Z,98614.44
2022-12-11T01:40:38.027Z,98613.88
2022-12-11T01:43:21.789Z,98590.34
2022-12-11T01:46:05.669Z,98601.94
2022-12-11T01:48:51.428Z,98447.09
2022-12-11T01:51:40.023Z,98591.19
2022-12-11T01:54:25.597Z,98584.56
2022-12-11T01:57:10.679Z,98574.91
2022-12-11T01:59:56.787Z,98561.44
2022-12-11T02:02:40.559Z,98581.44
2022-12-11T02:05:25.855Z,98545.34
2022-12-11T02:08:10.278Z,98549.09
2022-12-11T02:11:07.800Z,98551.69
2022-12-11T02:13:58.848Z,98545.72
2022-12-11T02:16:48.594Z,98497.66
2022-12-11T02:19:46.343Z,98503.22
2022-12-11T02:22:50.103Z,98472.69
2022-12-11T02:25:43.201Z,98441.69
2022-12-11T02:28:34.662Z,98465.69
2022-12-11T02:31:25.670Z,98461.41
2022-12-11T02:34:14.927Z,98486.56
2022-12-11T02:37:03.348Z,98470.91
2022-12-11T02:39:50.409Z,98423.13
2022-12-11T02:42:35.517Z,98436.34
2022-12-11T02:45:23.191Z,98419.78
2022-12-11T02:48:09.873Z,98378.41
2022-12-11T02:50:57.985Z,98424.03
2022-12-11T02:53:45.188Z,98422.69
2022-12-11T02:56:34.310Z,98447.94
2022-12-11T02:59:23.915Z,98474.13
2022-12-11T03:02:09.677Z,98475.59
2022-12-11T03:04:53.782Z,98454.25
2022-12-11T03:07:40.833Z,98451.22
2022-12-11T03:10:25.320Z,98408.03
2022-12-11T03:13:09.262Z,98423.84
2022-12-11T03:16:05.743Z,98454.41
2022-12-11T03:19:00.467Z,98454.09
2022-12-11T03:21:50.665Z,98431.28
2022-12-11T03:24:40.506Z,98407.28
2022-12-11T03:27:28.154Z,98414.06
2022-12-11T03:30:17.509Z,98439.75
2022-12-11T03:33:06.626Z,98407.28
2022-12-11T03:35:57.395Z,98438.88
2022-12-11T03:38:46.553Z,98450.63
2022-12-11T03:41:34.476Z,98437.59
2022-12-11T03:44:19.327Z,98464.47
2022-12-11T03:47:08.062Z,98419.97
2022-12-11T03:49:55.247Z,98423.25
2022-12-11T03:52:45.983Z,98433.38
2022-12-11T03:55:31.880Z,98403.41
2022-12-11T03:58:15.960Z,98363.69
2022-12-11T04:00:59.970Z,98366.53
2022-12-11T04:03:43.991Z,98333.06
2022-12-11T04:06:27.974Z,98353.38
2022-12-11T04:09:13.540Z,98301.78
2022-12-11T04:11:57.475Z,98296.91
2022-12-11T04:14:59.427Z,98343.25
2022-12-11T04:18:00.706Z,98352.34
2022-12-11T04:21:04.209Z,98367.69
2022-12-11T04:24:05.220Z,98362.41
2022-12-11T04:26:50.258Z,98342.41
2022-12-11T04:29:33.990Z,98346.69
2022-12-11T04:32:17.602Z,98329.06
2022-12-11T04:35:01.436Z,98320.94
2022-12-11T04:37:46.895Z,98307.59
2022-12-11T04:40:30.722Z,98324.94
2022-12-11T04:43:15.837Z,98339.31
2022-12-11T04:46:03.882Z,98338.28
2022-12-11T04:48:53.855Z,98348.44
2022-12-11T04:51:39.328Z,98364.09
2022-12-11T04:54:23.030Z,98364.75
2022-12-11T04:57:07.074Z,98355.25
2022-12-11T04:59:52.247Z,98354.56
2022-12-11T05:02:37.210Z,98358.25
2022-12-11T05:05:21.005Z,98334.34
2022-12-11T05:08:05.570Z,98285.22
2022-12-11T05:10:56.961Z,98296.53
2022-12-11T05:13:41.027Z,98330.53
2022-12-11T05:16:26.198Z,98318.53
2022-12-11T05:19:09.973Z,98336.44
2022-12-11T05:21:53.862Z,98352.28
2022-12-11T05:24:37.506Z,98347.28
2022-12-11T05:27:21.285Z,98333.44
2022-12-11T05:30:05.732Z,98337.63
2022-12-11T05:32:50.876Z,98351.59
2022-12-11T05:35:34.841Z,98345.59
2022-12-11T05:38:18.600Z,98325.94
2022-12-11T05:41:04.163Z,98343.41
2022-12-11T05:43:48.573Z,98354.94
2022-12-11T05:46:32.674Z,98361.59
2022-12-11T05:49:20.061Z,98367.28
2022-12-11T05:52:04.017Z,98355.91
2022-12-11T05:54:49.985Z,98357.09
2022-12-11T05:57:33.983Z,98335.59
2022-12-11T06:00:17.782Z,98364.38
2022-12-11T06:03:01.635Z,98373.28
2022-12-11T06:05:46.938Z,98363.09
2022-12-11T06:08:30.996Z,98375.94
2022-12-11T06:11:18.382Z,98362.91
2022-12-11T06:14:05.834Z,98361.59
2022-12-11T06:16:50.205Z,98347.09
2022-12-11T06:19:36.939Z,98351.28
2022-12-11T06:22:22.277Z,98340.19
2022-12-11T06:25:07.088Z,98350.41
2022-12-11T06:27:51.808Z,98317.75
2022-12-11T06:30:38.620Z,98355.22
2022-12-11T06:33:23.142Z,98368.56
2022-12-11T06:36:09.189Z,98366.91
2022-12-11T06:38:55.930Z,98291.53
2022-12-11T06:41:39.971Z,98377.03
2022-12-11T06:44:25.110Z,98311.63
2022-12-11T06:47:09.090Z,98341.56
2022-12-11T06:49:53.101Z,98357.22
2022-12-11T06:52:37.207Z,98403.41
2022-12-11T06:55:22.804Z,98366.56
2022-12-11T06:58:07.046Z,98359.25
2022-12-11T07:00:51.251Z,98402.56
2022-12-11T07:03:35.667Z,98364.19
2022-12-11T07:06:19.775Z,98383.09
2022-12-11T07:09:05.648Z,98375.25
2022-12-11T07:11:52.740Z,98414.94
2022-12-11T07:14:36.947Z,98391.94
2022-12-11T07:17:20.999Z,98416.97
2022-12-11T07:20:05.792Z,98395.63
2022-12-11T07:22:49.988Z,98413.59
2022-12-11T07:25:34.140Z,98409.94
2022-12-11T07:28:19.596Z,98406.75
2022-12-11T07:31:06.872Z,98363.22
2022-12-11T07:33:55.505Z,98374.91
2022-12-11T07:36:39.825Z,98405.94
2022-12-11T07:39:23.792Z,98369.69
2022-12-11T07:42:07.903Z,98373.25
2022-12-11T07:44:53.451Z,98384.28
2022-12-11T07:47:37.450Z,98382.78
2022-12-11T07:50:21.554Z,98428.31
2022-12-11T07:53:06.000Z,98399.31
2022-12-11T07:55:50.261Z,98415.81
2022-12-11T07:58:34.465Z,98364.63
2022-12-11T08:01:21.585Z,98403.63
2022-12-11T08:04:07.435Z,98383.56
2022-12-11T08:06:51.486Z,98343.88
2022-12-11T08:09:35.538Z,98377.19
2022-12-11T08:12:19.606Z,98345.69
2022-12-11T08:15:03.748Z,98333.34
2022-12-11T08:17:49.684Z,98334.47
2022-12-11T08:20:33.834Z,98366.84
2022-12-11T08:23:17.902Z,98342.06
2022-12-11T08:26:04.893Z,98268.69
2022-12-11T08:28:49.116Z,98283.22
2022-12-11T08:31:33.510Z,98300.41
2022-12-11T08:34:18.980Z,98282.72
2022-12-11T08:37:04.038Z,98287.22
2022-12-11T08:39:48.549Z,98295.16
2022-12-11T08:42:32.781Z,98332.84
2022-12-11T08:45:17.185Z,98322.88
2022-12-11T08:48:01.837Z,98345.22
2022-12-11T08:50:47.861Z,98326.19
2022-12-11T08:53:33.235Z,98327.88
2022-12-11T08:56:21.651Z,98356.63
2022-12-11T08:59:06.437Z,98307.44
2022-12-11T09:01:50.497Z,98296.72
2022-12-11T09:04:34.714Z,98312.31
2022-12-11T09:07:20.121Z,98342.16
2022-12-11T09:10:04.279Z,98299.34
2022-12-11T09:12:48.136Z,98302.19
2022-12-11T09:15:32.342Z,98321.16
2022-12-11T09:18:16.359Z,98286.13
2022-12-11T09:21:02.163Z,98322.00
2022-12-11T09:23:48.103Z,98301.72
2022-12-11T09:26:32.088Z,98336.16
2022-12-11T09:29:16.205Z,98305.66
2022-12-11T09:32:00.233Z,98329.78
2022-12-11T09:34:44.374Z,98313.25
2022-12-11T09:37:28.331Z,98293.16
2022-12-11T09:40:15.114Z,98261.31
2022-12-11T09:43:03.941Z,98269.63
2022-12-11T09:45:48.435Z,98271.63
2022-12-11T09:48:35.080Z,98282.63
2022-12-11T09:51:24.228Z,98272.59
2022-12-11T09:54:08.180Z,98321.75
2022-12-11T09:57:00.022Z,98309.47
2022-12-11T10:00:04.192Z,98266.44
2022-12-11T10:03:13.433Z,98263.19
2022-12-11T10:06:05.294Z,98258.44
2022-12-11T10:09:02.138Z,98283.31
2022-12-11T10:11:58.263Z,98243.72
2022-12-11T10:14:55.333Z,98278.69
2022-12-11T10:17:41.863Z,98212.44
2022-12-11T10:20:31.246Z,98273.84
2022-12-11T10:23:20.946Z,98282.00
2022-12-11T10:26:08.699Z,98279.03
2022-12-11T10:28:54.495Z,98264.28
2022-12-11T10:31:46.293Z,98268.72
2022-12-11T10:34:35.417Z,98256.16
2022-12-11T10:37:19.983Z,98215.53
2022-12-11T10:40:04.177Z,98253.13
2022-12-11T10:42:54.524Z,98179.22
2022-12-11T10:45:40.019Z,98222.34
2022-12-11T10:48:23.943Z,98249.06
2022-12-11T10:51:08.330Z,98257.16
2022-12-11T10:53:52.832Z,98235.00
2022-12-11T10:56:39.181Z,98227.91
2022-12-11T10:59:27.248Z,98260.81
2022-12-11T11:02:24.496Z,98270.94
2022-12-11T11:05:17.095Z,98278.81
2022-12-11T11:08:15.320Z,98269.84
2022-12-11T11:11:01.240Z,98275.91
2022-12-11T11:13:45.506Z,98243.41
2022-12-11T11:16:29.589Z,98276.91
2022-12-11T11:19:23.637Z,98245.56
2022-12-11T11:22:13.875Z,98291.31
2022-12-11T11:24:59.797Z,98291.38
2022-12-11T11:27:47.192Z,98293.31
2022-12-11T11:30:35.228Z,98260.25
2022-12-11T11:33:21.181Z,98277.41
2022-12-11T11:36:08.754Z,98252.09
2022-12-11T11:39:07.435Z,98288.19
2022-12-11T11:41:55.986Z,98243.53
2022-12-11T11:44:44.451Z,98285.13
2022-12-11T11:47:32.987Z,98275.22
2022-12-11T11:50:21.509Z,98273.78
2022-12-11T11:53:13.407Z,98257.31
2022-12-11T11:56:07.030Z,98235.28
2022-12-11T11:59:02.340Z,98268.47
2022-12-11T12:01:46.441Z,98248.88
2022-12-11T12:04:34.732Z,98224.00
2022-12-11T12:07:34.474Z,98216.75
2022-12-11T12:10:26.581Z,98216.28
2022-12-11T12:13:48.017Z,98215.06
2022-12-11T12:16:52.863Z,98244.31
2022-12-11T12:19:48.630Z,98259.91
2022-12-11T12:22:48.915Z,98241.19
2022-12-11T12:25:40.926Z,98253.28
2022-12-11T12:28:35.460Z,98210.47
2022-12-11T12:31:33.448Z,98243.69
2022-12-11T12:34:28.808Z,98242.91
2022-12-11T12:37:28.394Z,98210.72
2022-12-11T12:40:20.363Z,98257.53
2022-12-11T12:43:32.722Z,98219.69
2022-12-11T12:46:27.189Z,98212.59
2022-12-11T12:49:16.824Z,98189.34
2022-12-11T12:52:01.758Z,98223.50
2022-12-11T12:55:09.195Z,98219.41
2022-12-11T12:57:55.925Z,98190.69
2022-12-11T13:00:43.773Z,98226.78
2022-12-11T13:03:33.074Z,98249.78
2022-12-11T13:06:17.120Z,98255.53
2022-12-11T13:09:14.449Z,98239.19
2022-12-11T13:11:58.774Z,98243.00
2022-12-11T13:14:42.768Z,98233.41
2022-12-11T13:17:38.699Z,98255.63
2022-12-11T13:20:25.353Z,98246.50
2022-12-11T13:23:21.625Z,98241.06
2022-12-11T13:26:06.057Z,98244.19
2022-12-11T13:28:51.754Z,98155.22
2022-12-11T13:31:37.342Z,98230.97
2022-12-11T13:34:25.149Z,98233.97
2022-12-11T13:37:26.029Z,98251.06
2022-12-11T13:40:17.579Z,98260.03
2022-12-11T13:43:04.230Z,98262.59
2022-12-11T13:45:51.509Z,98256.22
2022-12-11T13:48:39.010Z,98216.25
2022-12-11T13:51:26.274Z,98246.75
2022-12-11T13:54:17.773Z,98254.50
2022-12-11T13:57:05.332Z,98239.19
2022-12-11T13:59:51.326Z,98258.28
2022-12-11T14:02:39.428Z,98241.47
2022-12-11T14:05:23.886Z,98259.41
2022-12-11T14:08:11.196Z,98255.53
2022-12-11T14:10:55.758Z,98234.81
2022-12-11T14:13:42.318Z,98254.47
2022-12-11T14:16:28.009Z,98246.63
2022-12-11T14:19:18.111Z,98234.44
2022-12-11T14:22:03.505Z,98250.78
2022-12-11T14:24:53.913Z,98246.97
2022-12-11T14:27:37.708Z,98267.16
2022-12-11T14:30:23.438Z,98277.94
2022-12-11T14:33:07.561Z,98298.72
2022-12-11T14:35:53.833Z,98288.78
2022-12-11T14:38:44.590Z,98296.59
2022-12-11T14:41:36.678Z,98294.06
2022-12-11T14:44:25.056Z,98297.50
2022-12-11T14:47:15.428Z,98291.38
2022-12-11T14:50:04.034Z,98292.56
2022-12-11T14:52:50.135Z,98298.34
2022-12-11T14:55:36.933Z,98297.91
2022-12-11T14:58:25.088Z,98293.47
2022-12-11T15:01:22.885Z,98289.59
2022-12-11T15:04:17.500Z,98285.50
2022-12-11T15:07:01.891Z,98272.59
2022-12-11T15:09:48.005Z,98268.38
2022-12-11T15:12:32.435Z,98277.19
2022-12-11T15:15:19.218Z,98277.13
2022-12-11T15:18:08.297Z,98277.69
2022-12-11T15:20:54.566Z,98280.19
2022-12-11T15:23:51.605Z,98282.72
2022-12-11T15:26:38.021Z,98254.06
2022-12-11T15:29:27.805Z,98241.84
2022-12-11T15:32:20.144Z,98295.72
2022-12-11T15:35:04.163Z,98288.00
2022-12-11T15:37:54.120Z,98302.03
2022-12-11T15:40:40.256Z,98279.25
2022-12-11T15:43:24.305Z,98296.59
2022-12-11T15:46:08.589Z,98292.25
2022-12-11T15:48:53.902Z,98296.88
2022-12-11T15:51:42.613Z,98297.94
2022-12-11T15:54:26.840Z,98301.59
2022-12-11T15:57:23.397Z,98313.28
2022-12-11T16:00:08.744Z,98313.63
2022-12-11T16:02:52.791Z,98313.97
2022-12-11T16:05:38.038Z,98313.91
2022-12-11T16:08:23.548Z,98315.44
2022-12-11T16:11:07.451Z,98311.59
2022-12-11T16:13:52.242Z,98298.25
2022-12-11T16:16:35.985Z,98315.94
2022-12-11T16:19:19.722Z,98316.59
2022-12-11T16:22:05.288Z,98285.59
2022-12-11T16:24:49.046Z,98286.25
2022-12-11T16:27:33.035Z,98313.91
2022-12-11T16:30:16.876Z,98301.56
2022-12-11T16:33:00.597Z,98169.84
2022-12-11T16:35:44.447Z,98312.06
2022-12-11T16:38:29.544Z,98290.56
2022-12-11T16:41:13.366Z,98311.59
2022-12-11T16:43:57.225Z,98312.88
2022-12-11T16:46:41.143Z,98309.91
2022-12-11T16:49:25.009Z,98298.38
2022-12-11T16:52:08.999Z,98310.53
2022-12-11T16:54:54.147Z,98311.53
2022-12-11T16:57:38.118Z,98316.56
2022-12-11T17:00:22.111Z,98326.00
2022-12-11T17:03:06.026Z,98297.13
2022-12-11T17:05:49.844Z,98342.66
2022-12-11T17:08:33.536Z,98348.97
2022-12-11T17:11:21.781Z,98332.28
2022-12-11T17:14:05.436Z,98349.59
2022-12-11T17:16:49.279Z,98347.41
2022-12-11T17:19:33.172Z,98327.44
2022-12-11T17:22:17.062Z,98342.13
2022-12-11T17:25:01.011Z,98312.88
2022-12-11T17:27:46.408Z,98310.69
2022-12-11T17:30:30.476Z,98342.00
2022-12-11T17:33:14.404Z,98296.28
2022-12-11T17:36:01.320Z,98335.22
2022-12-11T17:38:45.699Z,98307.47
2022-12-11T17:41:29.475Z,98340.56
2022-12-11T17:44:14.631Z,98339.88
2022-12-11T17:46:59.107Z,98346.84
2022-12-11T17:49:42.939Z,98320.25
2022-12-11T17:52:32.367Z,98329.72
2022-12-11T17:55:18.158Z,98333.78
2022-12-11T17:58:01.933Z,98344.31
2022-12-11T18:00:53.238Z,98352.66
2022-12-11T18:03:38.149Z,98341.06
2022-12-11T18:06:23.230Z,98330.69
2022-12-11T18:09:07.301Z,98355.47
2022-12-11T18:11:51.962Z,98342.00
2022-12-11T18:14:36.280Z,98315.34
2022-12-11T18:17:21.422Z,98344.84
2022-12-11T18:20:06.274Z,98350.97
2022-12-11T18:22:49.943Z,98358.31
2022-12-11T18:25:34.214Z,98359.66
2022-12-11T18:28:18.057Z,98354.22
2022-12-11T18:31:02.680Z,98350.06
2022-12-11T18:33:48.354Z,98347.06
2022-12-11T18:36:32.180Z,98356.91
2022-12-11T18:39:15.941Z,98356.59
2022-12-11T18:42:31.085Z,98368.22
2022-12-11T18:45:03.898Z,98366.19
2022-12-11T18:47:48.027Z,98358.88
2022-12-11T18:50:33.111Z,98359.19
2022-12-11T18:53:17.252Z,98366.00
2022-12-11T18:56:05.798Z,98366.25
2022-12-11T18:58:52.220Z,98367.25
2022-12-11T19:01:36.762Z,98356.06
2022-12-11T19:04:20.455Z,98344.41
2022-12-11T19:07:05.754Z,98375.25
2022-12-11T19:09:49.590Z,98384.09
2022-12-11T19:12:33.291Z,98400.41
2022-12-11T19:15:22.179Z,98403.41
2022-12-11T19:18:07.637Z,98400.50
2022-12-11T19:20:56.735Z,98408.47
2022-12-11T19:23:48.767Z,98407.59
2022-12-11T19:26:32.498Z,98391.16
2022-12-11T19:29:21.405Z,98410.81
2022-12-11T19:32:06.123Z,98407.34
2022-12-11T19:34:54.561Z,98393.50
2022-12-11T19:37:38.390Z,98392.94
2022-12-11T19:40:26.377Z,98379.75
2022-12-11T19:43:11.247Z,98417.59
2022-12-11T19:45:54.989Z,98427.31
2022-12-11T19:48:40.923Z,98446.09
2022-12-11T19:51:26.874Z,98444.69
2022-12-11T19:54:14.820Z,98456.81
2022-12-11T19:56:59.968Z,98475.63
2022-12-11T19:59:43.702Z,98489.69
2022-12-11T20:02:27.668Z,98481.28
2022-12-11T20:05:12.081Z,98480.09
2022-12-11T20:07:57.503Z,98468.06
2022-12-11T20:10:49.146Z,98480.53
2022-12-11T20:13:34.668Z,98517.06
2022-12-11T20:16:28.899Z,98463.16
2022-12-11T20:19:24.618Z,98482.97
2022-12-11T20:22:09.296Z,98475.22
2022-12-11T20:24:53.342Z,98503.94
2022-12-11T20:27:38.579Z,98472.56
2022-12-11T20:30:24.797Z,98469.09
2022-12-11T20:33:08.674Z,98472.50
2022-12-11T20:35:52.677Z,98470.44
2022-12-11T20:38:37.348Z,98477.97
2022-12-11T20:41:23.823Z,98501.00
2022-12-11T20:44:07.832Z,98495.00
2022-12-11T20:46:53.314Z,98532.47
2022-12-11T20:49:37.625Z,98565.81
2022-12-11T20:52:21.656Z,98624.19
2022-12-11T20:55:06.337Z,98614.91
2022-12-11T20:57:50.198Z,98553.63
2022-12-11T21:00:34.656Z,98564.50
2022-12-11T21:03:20.217Z,98587.16
2022-12-11T21:06:04.144Z,98548.19
2022-12-11T21:08:48.090Z,98533.69
2022-12-11T21:11:32.084Z,98533.66
2022-12-11T21:14:16.503Z,98553.69
2022-12-11T21:17:01.161Z,98538.31
2022-12-11T21:19:46.600Z,98526.19
2022-12-11T21:22:30.522Z,98502.09
2022-12-11T21:25:14.781Z,98519.41
2022-12-11T21:27:58.825Z,98489.56
2022-12-11T21:30:42.911Z,98551.59
2022-12-11T21:33:26.887Z,98566.31
2022-12-11T21:36:15.347Z,98564.50
2022-12-11T21:39:00.266Z,98577.59
2022-12-11T21:41:44.234Z,98599.75
2022-12-11T21:47:32.831Z,98538.84
2022-12-11T21:50:16.818Z,98613.09
2022-12-11T21:53:02.895Z,98612.31
2022-12-11T21:55:46.816Z,98635.22
2022-12-11T21:58:30.734Z,98619.47
2022-12-11T22:01:16.788Z,98625.53
2022-12-11T22:04:01.073Z,98667.47
2022-12-11T22:06:47.394Z,98627.56
2022-12-11T22:09:32.876Z,98654.84
2022-12-11T22:12:23.684Z,98638.25
2022-12-11T22:15:09.488Z,98631.66
2022-12-11T22:17:53.742Z,98669.59
2022-12-11T22:20:37.699Z,98669.00
2022-12-11T22:23:21.871Z,98664.69
2022-12-11T22:26:09.497Z,98662.06
2022-12-11T22:28:54.030Z,98665.91
2022-12-11T22:31:38.119Z,98661.28
2022-12-11T22:34:22.235Z,98663.38
2022-12-11T22:37:06.174Z,98634.47
2022-12-11T22:39:50.194Z,98659.63
2022-12-11T22:42:35.655Z,98628.69
2022-12-11T22:45:20.111Z,98672.94
2022-12-11T22:48:04.137Z,98609.00
2022-12-11T22:50:48.120Z,98647.88
2022-12-11T22:53:32.018Z,98688.06
2022-12-11T22:56:16.007Z,98640.59
2022-12-11T22:59:01.423Z,98690.63
2022-12-11T23:01:45.618Z,98679.13
2022-12-11T23:04:29.534Z,98687.81
2022-12-11T23:07:13.468Z,98666.84
2022-12-11T23:09:57.438Z,98685.03
2022-12-11T23:12:41.459Z,98670.66
2022-12-11T23:15:27.061Z,98709.75
2022-12-11T23:18:10.930Z,98682.22
2022-12-11T23:20:54.812Z,98685.84
2022-12-11T23:23:38.698Z,98679.94
2022-12-11T23:26:23.483Z,98713.00
2022-12-11T23:29:07.943Z,98683.13
2022-12-11T23:31:53.380Z,98716.19
2022-12-11T23:34:37.783Z,98728.53
2022-12-11T23:37:21.752Z,98705.78
2022-12-11T23:40:06.750Z,98741.38
2022-12-11T23:42:50.757Z,98741.50
2022-12-11T23:45:34.672Z,98743.34
2022-12-11T23:48:19.871Z,98748.19
2022-12-11T23:51:06.216Z,98717.88
2022-12-11T23:53:50.437Z,98710.50
2022-12-11T23:56:34.520Z,98710.19
2022-12-11T23:59:18.427Z,98713.53
